AMZ weather

Ardmore Airport
Manurewa, Auckland Region, New Zealand

Public forecast

Using degrees Celsius for public forecast. Weather courtesy of forecast.io.

METAR (pilot weather report)

Closest report is Auckland International Airport, 8.8 nm (16.2 km) W. Retrieved 2019/06/16 15:30 UTC (24 minutes ago):

NZAA 161530Z AUTO 24010KT 9999 FEW065/// 12/08 Q1016 TEMPO 7000 SHRA

TAF (pilot weather forecast)

Closest forecast is Auckland International Airport, 8.8 nm (16.2 km) W. Retrieved 2019/06/16 12:10 UTC (4 hours ago):

TAF NZAA 161104Z 1612/1712 24015KT 9999 -SHRA FEW020 SCT025 TEMPO 1612/1712 7000 SHRA